sensor_id;sensor_type;location;lat;lon;timestamp;P1;durP1;ratioP1;P2;durP2;ratioP2
23236;SDS011;11787;52.018;8.570;2024-03-22T07:31:41;19.70;;;8.15;;
23236;SDS011;11787;52.018;8.570;2024-03-22T07:34:07;15.10;;;7.47;;
23236;SDS011;11787;52.018;8.570;2024-03-22T07:36:36;15.00;;;7.40;;
23236;SDS011;11787;52.018;8.570;2024-03-22T07:39:03;14.55;;;7.43;;
23236;SDS011;11787;52.018;8.570;2024-03-22T07:41:31;17.83;;;6.95;;
23236;SDS011;11787;52.018;8.570;2024-03-22T07:43:57;13.70;;;7.10;;
23236;SDS011;11787;52.018;8.570;2024-03-22T07:46:24;16.65;;;7.30;;
23236;SDS011;11787;52.018;8.570;2024-03-22T07:48:50;16.75;;;7.25;;
23236;SDS011;11787;52.018;8.570;2024-03-22T07:51:16;15.23;;;7.55;;
23236;SDS011;11787;52.018;8.570;2024-03-22T07:53:41;11.20;;;6.18;;
23236;SDS011;11787;52.018;8.570;2024-03-22T07:56:07;20.08;;;7.63;;
23236;SDS011;11787;52.018;8.570;2024-03-22T07:58:32;13.48;;;7.22;;
23236;SDS011;11787;52.018;8.570;2024-03-22T08:00:58;13.00;;;6.75;;
23236;SDS011;11787;52.018;8.570;2024-03-22T08:03:24;21.35;;;7.15;;
23236;SDS011;11787;52.018;8.570;2024-03-22T08:05:49;16.63;;;6.97;;
23236;SDS011;11787;52.018;8.570;2024-03-22T08:08:15;15.55;;;7.13;;
23236;SDS011;11787;52.018;8.570;2024-03-22T08:10:41;16.90;;;6.97;;
23236;SDS011;11787;52.018;8.570;2024-03-22T08:13:06;14.90;;;7.70;;
23236;SDS011;11787;52.018;8.570;2024-03-22T08:15:32;16.10;;;7.90;;
23236;SDS011;11787;52.018;8.570;2024-03-22T08:17:58;11.45;;;6.03;;
23236;SDS011;11787;52.018;8.570;2024-03-22T08:20:24;8.60;;;4.75;;
23236;SDS011;11787;52.018;8.570;2024-03-22T08:22:49;14.63;;;6.47;;
23236;SDS011;11787;52.018;8.570;2024-03-22T08:25:15;12.73;;;6.97;;
23236;SDS011;11787;52.018;8.570;2024-03-22T08:27:42;12.38;;;6.03;;
23236;SDS011;11787;52.018;8.570;2024-03-22T08:30:09;17.25;;;6.95;;
23236;SDS011;11787;52.018;8.570;2024-03-22T08:32:35;13.85;;;6.80;;
23236;SDS011;11787;52.018;8.570;2024-03-22T08:35:02;12.27;;;5.72;;
23236;SDS011;11787;52.018;8.570;2024-03-22T08:37:29;9.80;;;6.25;;
23236;SDS011;11787;52.018;8.570;2024-03-22T08:39:55;13.95;;;6.88;;
23236;SDS011;11787;52.018;8.570;2024-03-22T08:42:21;14.73;;;7.25;;
23236;SDS011;11787;52.018;8.570;2024-03-22T08:44:46;16.85;;;6.45;;
23236;SDS011;11787;52.018;8.570;2024-03-22T08:47:12;22.35;;;7.53;;
23236;SDS011;11787;52.018;8.570;2024-03-22T08:49:38;15.48;;;6.75;;
23236;SDS011;11787;52.018;8.570;2024-03-22T08:52:04;17.02;;;6.88;;
23236;SDS011;11787;52.018;8.570;2024-03-22T08:54:30;11.15;;;6.05;;
23236;SDS011;11787;52.018;8.570;2024-03-22T08:56:55;10.60;;;5.88;;
23236;SDS011;11787;52.018;8.570;2024-03-22T08:59:21;14.40;;;6.30;;
23236;SDS011;11787;52.018;8.570;2024-03-22T09:01:49;14.20;;;6.63;;
23236;SDS011;11787;52.018;8.570;2024-03-22T09:04:15;14.27;;;6.50;;
23236;SDS011;11787;52.018;8.570;2024-03-22T09:06:40;13.30;;;6.45;;
23236;SDS011;11787;52.018;8.570;2024-03-22T09:09:06;13.63;;;6.13;;
23236;SDS011;11787;52.018;8.570;2024-03-22T09:11:33;13.38;;;5.88;;
23236;SDS011;11787;52.018;8.570;2024-03-22T09:13:58;9.45;;;5.50;;
23236;SDS011;11787;52.018;8.570;2024-03-22T09:16:24;14.48;;;6.35;;
23236;SDS011;11787;52.018;8.570;2024-03-22T09:18:49;10.48;;;5.95;;
23236;SDS011;11787;52.018;8.570;2024-03-22T09:21:15;11.80;;;6.28;;
23236;SDS011;11787;52.018;8.570;2024-03-22T09:23:41;13.65;;;6.35;;
23236;SDS011;11787;52.018;8.570;2024-03-22T09:26:07;12.15;;;5.68;;
23236;SDS011;11787;52.018;8.570;2024-03-22T09:28:32;15.07;;;6.72;;
23236;SDS011;11787;52.018;8.570;2024-03-22T09:31:02;9.88;;;4.70;;
23236;SDS011;11787;52.018;8.570;2024-03-22T09:33:30;12.95;;;6.28;;
23236;SDS011;11787;52.018;8.570;2024-03-22T09:35:56;14.00;;;5.20;;
23236;SDS011;11787;52.018;8.570;2024-03-22T09:38:22;10.77;;;5.72;;
23236;SDS011;11787;52.018;8.570;2024-03-22T09:40:48;9.60;;;5.97;;
23236;SDS011;11787;52.018;8.570;2024-03-22T09:43:13;11.23;;;6.13;;
23236;SDS011;11787;52.018;8.570;2024-03-22T09:45:43;13.57;;;6.13;;
23236;SDS011;11787;52.018;8.570;2024-03-22T09:48:10;12.25;;;5.53;;
23236;SDS011;11787;52.018;8.570;2024-03-22T09:50:35;10.50;;;5.28;;
23236;SDS011;11787;52.018;8.570;2024-03-22T09:53:02;12.38;;;6.18;;
23236;SDS011;11787;52.018;8.570;2024-03-22T09:55:29;13.32;;;6.13;;
23236;SDS011;11787;52.018;8.570;2024-03-22T09:57:56;8.70;;;5.13;;
23236;SDS011;11787;52.018;8.570;2024-03-22T10:00:22;9.38;;;4.75;;
23236;SDS011;11787;52.018;8.570;2024-03-22T10:02:50;11.35;;;5.72;;
23236;SDS011;11787;52.018;8.570;2024-03-22T10:05:16;8.57;;;4.97;;
23236;SDS011;11787;52.018;8.570;2024-03-22T10:07:43;9.43;;;5.47;;
23236;SDS011;11787;52.018;8.570;2024-03-22T10:10:09;8.27;;;5.18;;
23236;SDS011;11787;52.018;8.570;2024-03-22T10:12:35;10.52;;;5.25;;
23236;SDS011;11787;52.018;8.570;2024-03-22T10:15:01;10.52;;;5.20;;
23236;SDS011;11787;52.018;8.570;2024-03-22T10:17:27;12.52;;;5.95;;
23236;SDS011;11787;52.018;8.570;2024-03-22T10:19:54;11.30;;;6.13;;
23236;SDS011;11787;52.018;8.570;2024-03-22T10:22:19;11.50;;;6.05;;
23236;SDS011;11787;52.018;8.570;2024-03-22T10:24:45;10.55;;;4.93;;
23236;SDS011;11787;52.018;8.570;2024-03-22T10:27:11;13.23;;;5.72;;
23236;SDS011;11787;52.018;8.570;2024-03-22T10:29:36;10.52;;;5.22;;
23236;SDS011;11787;52.018;8.570;2024-03-22T10:32:02;13.88;;;5.70;;
23236;SDS011;11787;52.018;8.570;2024-03-22T10:34:28;10.30;;;5.80;;
23236;SDS011;11787;52.018;8.570;2024-03-22T10:36:56;9.70;;;5.10;;
23236;SDS011;11787;52.018;8.570;2024-03-22T10:39:25;10.00;;;5.75;;
23236;SDS011;11787;52.018;8.570;2024-03-22T10:41:51;9.25;;;4.28;;
23236;SDS011;11787;52.018;8.570;2024-03-22T10:44:18;10.38;;;5.82;;
23236;SDS011;11787;52.018;8.570;2024-03-22T10:46:44;11.15;;;4.72;;
23236;SDS011;11787;52.018;8.570;2024-03-22T10:49:12;10.27;;;4.97;;
23236;SDS011;11787;52.018;8.570;2024-03-22T10:51:46;12.93;;;5.13;;
23236;SDS011;11787;52.018;8.570;2024-03-22T10:54:22;12.68;;;5.97;;
23236;SDS011;11787;52.018;8.570;2024-03-22T10:56:52;10.18;;;5.63;;
23236;SDS011;11787;52.018;8.570;2024-03-22T10:59:19;12.50;;;6.00;;
23236;SDS011;11787;52.018;8.570;2024-03-22T11:01:46;13.63;;;6.07;;
23236;SDS011;11787;52.018;8.570;2024-03-22T11:04:12;11.13;;;5.13;;
23236;SDS011;11787;52.018;8.570;2024-03-22T11:06:40;11.57;;;5.38;;
23236;SDS011;11787;52.018;8.570;2024-03-22T11:09:07;12.13;;;5.32;;
23236;SDS011;11787;52.018;8.570;2024-03-22T11:11:35;15.40;;;6.38;;
23236;SDS011;11787;52.018;8.570;2024-03-22T11:14:03;8.82;;;4.80;;
23236;SDS011;11787;52.018;8.570;2024-03-22T11:16:29;10.63;;;5.10;;
23236;SDS011;11787;52.018;8.570;2024-03-22T11:18:55;9.52;;;5.35;;
23236;SDS011;11787;52.018;8.570;2024-03-22T11:21:21;11.32;;;5.90;;
23236;SDS011;11787;52.018;8.570;2024-03-22T11:23:47;11.38;;;6.20;;
23236;SDS011;11787;52.018;8.570;2024-03-22T11:26:12;17.02;;;6.28;;
23236;SDS011;11787;52.018;8.570;2024-03-22T11:28:38;9.65;;;5.65;;
23236;SDS011;11787;52.018;8.570;2024-03-22T11:31:04;11.07;;;4.93;;
23236;SDS011;11787;52.018;8.570;2024-03-22T11:33:30;9.77;;;4.82;;
23236;SDS011;11787;52.018;8.570;2024-03-22T11:35:59;13.48;;;6.18;;
23236;SDS011;11787;52.018;8.570;2024-03-22T11:38:26;13.02;;;5.90;;
23236;SDS011;11787;52.018;8.570;2024-03-22T11:40:52;6.82;;;3.92;;
23236;SDS011;11787;52.018;8.570;2024-03-22T11:43:19;9.55;;;5.50;;
23236;SDS011;11787;52.018;8.570;2024-03-22T11:45:45;11.27;;;5.57;;
23236;SDS011;11787;52.018;8.570;2024-03-22T11:48:10;13.93;;;6.30;;
23236;SDS011;11787;52.018;8.570;2024-03-22T11:50:39;10.98;;;5.78;;
23236;SDS011;11787;52.018;8.570;2024-03-22T11:53:05;10.88;;;5.63;;
23236;SDS011;11787;52.018;8.570;2024-03-22T11:55:31;10.35;;;5.03;;
23236;SDS011;11787;52.018;8.570;2024-03-22T11:57:57;13.98;;;6.25;;
23236;SDS011;11787;52.018;8.570;2024-03-22T12:00:23;11.43;;;5.95;;
23236;SDS011;11787;52.018;8.570;2024-03-22T12:02:50;11.98;;;5.75;;
23236;SDS011;11787;52.018;8.570;2024-03-22T12:05:17;13.85;;;6.80;;
23236;SDS011;11787;52.018;8.570;2024-03-22T12:07:44;12.85;;;6.43;;
23236;SDS011;11787;52.018;8.570;2024-03-22T12:10:09;10.93;;;6.10;;
23236;SDS011;11787;52.018;8.570;2024-03-22T12:12:35;13.52;;;7.22;;
23236;SDS011;11787;52.018;8.570;2024-03-22T12:15:02;15.38;;;6.88;;
23236;SDS011;11787;52.018;8.570;2024-03-22T12:17:31;13.98;;;7.30;;
23236;SDS011;11787;52.018;8.570;2024-03-22T12:19:56;11.70;;;6.72;;
23236;SDS011;11787;52.018;8.570;2024-03-22T12:22:22;15.40;;;6.93;;
23236;SDS011;11787;52.018;8.570;2024-03-22T12:24:50;14.95;;;7.53;;
23236;SDS011;11787;52.018;8.570;2024-03-22T12:27:16;14.85;;;6.95;;
23236;SDS011;11787;52.018;8.570;2024-03-22T12:29:42;12.80;;;6.97;;
23236;SDS011;11787;52.018;8.570;2024-03-22T12:32:07;13.93;;;7.35;;
23236;SDS011;11787;52.018;8.570;2024-03-22T12:34:33;12.45;;;6.80;;
23236;SDS011;11787;52.018;8.570;2024-03-22T12:36:59;13.35;;;7.78;;
23236;SDS011;11787;52.018;8.570;2024-03-22T12:39:25;12.82;;;7.35;;
23236;SDS011;11787;52.018;8.570;2024-03-22T12:41:50;11.70;;;6.80;;
23236;SDS011;11787;52.018;8.570;2024-03-22T12:44:16;15.20;;;7.72;;
23236;SDS011;11787;52.018;8.570;2024-03-22T12:46:42;13.75;;;7.10;;
23236;SDS011;11787;52.018;8.570;2024-03-22T12:49:09;13.07;;;6.45;;
23236;SDS011;11787;52.018;8.570;2024-03-22T12:51:35;13.90;;;7.30;;
23236;SDS011;11787;52.018;8.570;2024-03-22T12:54:01;14.55;;;7.90;;
23236;SDS011;11787;52.018;8.570;2024-03-22T12:56:28;15.18;;;8.02;;
23236;SDS011;11787;52.018;8.570;2024-03-22T12:58:54;14.93;;;7.40;;
23236;SDS011;11787;52.018;8.570;2024-03-22T13:01:19;15.48;;;8.60;;
23236;SDS011;11787;52.018;8.570;2024-03-22T13:03:45;14.00;;;8.10;;
23236;SDS011;11787;52.018;8.570;2024-03-22T13:06:11;16.48;;;7.95;;
23236;SDS011;11787;52.018;8.570;2024-03-22T13:08:37;15.45;;;8.00;;
23236;SDS011;11787;52.018;8.570;2024-03-22T13:11:03;12.90;;;7.22;;
23236;SDS011;11787;52.018;8.570;2024-03-22T13:13:29;16.27;;;8.45;;
23236;SDS011;11787;52.018;8.570;2024-03-22T13:15:58;32.40;;;8.80;;
23236;SDS011;11787;52.018;8.570;2024-03-22T13:18:23;16.08;;;7.82;;
23236;SDS011;11787;52.018;8.570;2024-03-22T13:20:49;15.63;;;8.15;;
23236;SDS011;11787;52.018;8.570;2024-03-22T13:23:15;14.70;;;7.45;;
23236;SDS011;11787;52.018;8.570;2024-03-22T13:25:40;16.95;;;7.82;;
23236;SDS011;11787;52.018;8.570;2024-03-22T13:28:06;17.92;;;8.43;;
23236;SDS011;11787;52.018;8.570;2024-03-22T13:30:32;16.55;;;8.50;;
23236;SDS011;11787;52.018;8.570;2024-03-22T13:32:57;17.55;;;7.82;;
23236;SDS011;11787;52.018;8.570;2024-03-22T13:35:24;15.73;;;9.05;;
23236;SDS011;11787;52.018;8.570;2024-03-22T13:37:50;15.35;;;8.38;;
23236;SDS011;11787;52.018;8.570;2024-03-22T13:40:15;14.48;;;7.20;;
23236;SDS011;11787;52.018;8.570;2024-03-22T13:42:41;13.85;;;7.25;;
23236;SDS011;11787;52.018;8.570;2024-03-22T13:45:07;14.25;;;7.57;;
23236;SDS011;11787;52.018;8.570;2024-03-22T13:47:33;16.52;;;8.45;;
23236;SDS011;11787;52.018;8.570;2024-03-22T13:49:58;20.50;;;9.07;;
23236;SDS011;11787;52.018;8.570;2024-03-22T13:52:24;16.85;;;8.13;;
23236;SDS011;11787;52.018;8.570;2024-03-22T13:54:51;19.88;;;9.93;;
23236;SDS011;11787;52.018;8.570;2024-03-22T13:57:16;13.18;;;7.05;;
23236;SDS011;11787;52.018;8.570;2024-03-22T13:59:42;15.95;;;7.95;;
23236;SDS011;11787;52.018;8.570;2024-03-22T14:02:09;18.15;;;8.65;;
23236;SDS011;11787;52.018;8.570;2024-03-22T14:04:34;15.25;;;7.50;;
23236;SDS011;11787;52.018;8.570;2024-03-22T14:07:00;13.93;;;8.20;;
23236;SDS011;11787;52.018;8.570;2024-03-22T14:09:33;19.05;;;9.00;;
23236;SDS011;11787;52.018;8.570;2024-03-22T14:11:59;16.73;;;8.93;;
23236;SDS011;11787;52.018;8.570;2024-03-22T14:14:24;16.65;;;8.05;;
